Main page
METAR-TAF:

METAR-TAF

Airports :

Oslo Airport. Gardermoen

Oslo, Norway

latitude: 60-12N, longitude: 011-05E, elevation: 208 m

Current weather observation

The report was made 23 minutes ago, at 11:20 UTC
Wind 9 kt from the South, varying between Southeast and West/Southwest
Temperature 21°C
Humidity 56%
Pressure 1014 hPa
Visibility 10 km or more
Few clouds at a height of 4000 ft

METAR: ENGM 121120Z 19009KT 140V240 9999 FEW040 21/12 Q1014 NOSIG

Time: 13:43 (11:43 UTC)

Forecast

The report was made 6 hours and 43 minutes ago, at 05:00 UTC
Forecast valid from 12 at 06 UTC to 13 at 06 UTC
Wind 8 kt from the South
Visibility 10 km or more
Few clouds at a height of 3000 ft
Becoming
from 12 at 20 UTC to 12 at 22 UTC
Wind 10 kt from the North

TAF: ENGM 120500Z 1206/1306 18008KT 9999 FEW030 BECMG 1220/1222 35010KT

Weather observations and forecasts of more than 4000 airports (METAR and TAF reports).

The available stations are represented by yellow and red dots on the map.

Hover mouse over dot to see the name of the station.

Then click to see weather observations and forecasts.

To change the map : click on the green buttons with a black cross to zoom in, on the green button with a dash to zoom out, or on the green arrows for adjacent maps.


METAR-TAF: